СИЛА РОССИИ. Форум сайта «Отвага» (www.otvaga2004.ru)

Информация о пользователе

Привет, Гость! Войдите или зарегистрируйтесь.


Вы здесь » СИЛА РОССИИ. Форум сайта «Отвага» (www.otvaga2004.ru) » Вооружение сухопутных войск


Вооружение сухопутных войск

Тем 31 страница 60 из 203

Тема Ответов Просмотров Последнее сообщение
31 Ручные гранаты  Lans  [ 1 2 3  9 ]
247 35986 2021-12-02 17:59:40  Франсуа Бертран
20 7437 2021-11-17 21:30:04  Механический кот
33 Средства связи  Lans  [ 1 2 3  6 ]
153 27878 2021-11-04 10:36:46  Razve
34 Фортификация  Lans  [ 1 2 3  6 ]
158 27307 2021-09-23 20:37:36  Tactical Kit
35 Буксируемая артиллерия - 2  Пехота  [ 1 2 3  10 ]
273 55172 2021-09-15 19:48:38  Механический кот
36 Огнемёты  10V  [ 1 2 3  9 ]
256 38050 2021-09-14 21:33:56  DAK
37 Камуфляж-2  KORVIN  [ 1 2 3  12 ]
346 86767 2021-09-03 20:54:00  TK-421
66 18955 2021-09-01 16:44:36  Хорт мохнатый
39 Минометы  MARINIR  [ 1 2 3  12 ]
334 28177 2021-08-11 11:16:55  Штепсель
40 Пистолеты-4  Абалкин  [ 1 2 3  10 ]
278 41140 2021-08-04 12:25:46  Oleg7700
154 31192 2021-06-15 08:31:39  powermax
1003 45022 2021-06-04 15:27:49  Dobryak
685 75397 2021-04-26 16:06:47  Wind
905 43836 2021-02-15 09:30:40  powermax
0 979 2021-02-06 09:41:38  mr_tank
4 1364 2021-02-05 11:23:19  mr_tank
249 37123 2021-01-05 14:54:46  Oleg7700
87 32483 2020-12-04 17:29:49  Механический кот
49 Прицелы-2  KORVIN  [ 1 2 3  24 ]
696 118500 2020-11-17 13:44:35  prot
50 Закрыта Противотанковые средства 6  finnbogi  [ 1 2 3  41 ]
1224 83170 2020-11-02 23:25:40  Retiv
51 Закрыта Пулеметы-8  KORVIN  [ 1 2 3  38 ]
1133 125631 2020-10-30 21:22:50  Мак Сим
52 Закрыта Вооруженные силы: общие вопросы 4  Realist  [ 1 2 3  38 ]
1130 77173 2020-10-25 09:26:31  отрохов
53 Закрыта Средства ПВО-9  ДимитриUS  [ 1 2 3  40 ]
1190 123160 2020-10-22 21:29:22  Blitz.
1494 145848 2020-10-19 17:10:14  Wind
55 Закрыта Средства ПВО - 8  kinetic  [ 1 2 3  34 ]
1009 111281 2020-09-25 21:59:29  Oleg7700
56 РЛС разведки  Astax  [ 1 2 ]
50 12544 2020-08-29 11:54:15  Василий_Пупкин_123
57 Оружейные и околооружейные новости  Хорт мохнатый  [ 1 2 3  17 ]
503 62030 2020-08-09 19:41:11  Viktory
58 вопрос про КПВТ  Нихтферштейн
7 1435 2020-06-13 21:26:23  Blitz.
20 4096 2020-05-17 10:47:45  Astax
60 Околовоенные новости  Zaklepkin  [ 1 2 3  11 ]
305 31665 2020-04-23 17:57:51  Viktory

Вы здесь » СИЛА РОССИИ. Форум сайта «Отвага» (www.otvaga2004.ru) » Вооружение сухопутных войск